createdAt,value
2022-11-24T00:00:31.630Z,7.20
2022-11-24T00:02:58.400Z,7.45
2022-11-24T00:05:25.147Z,7.32
2022-11-24T00:07:52.208Z,7.75
2022-11-24T00:10:18.934Z,7.63
2022-11-24T00:12:45.533Z,7.30
2022-11-24T00:15:12.217Z,7.63
2022-11-24T00:17:39.262Z,7.85
2022-11-24T00:20:06.541Z,7.15
2022-11-24T00:22:33.276Z,7.07
2022-11-24T00:24:59.880Z,7.00
2022-11-24T00:27:26.553Z,7.07
2022-11-24T00:29:53.214Z,7.10
2022-11-24T00:32:19.951Z,6.38
2022-11-24T00:34:47.110Z,6.13
2022-11-24T00:37:13.895Z,6.50
2022-11-24T00:39:40.476Z,6.38
2022-11-24T00:42:07.084Z,5.75
2022-11-24T00:44:33.952Z,6.10
2022-11-24T00:47:00.821Z,6.07
2022-11-24T00:49:27.562Z,6.00
2022-11-24T00:51:54.290Z,5.85
2022-11-24T00:54:21.065Z,5.80
2022-11-24T00:56:48.107Z,5.85
2022-11-24T00:59:14.759Z,5.75
2022-11-24T01:01:42.477Z,6.03
2022-11-24T01:04:09.219Z,5.53
2022-11-24T01:06:36.229Z,5.85
2022-11-24T01:09:03.692Z,5.70
2022-11-24T01:11:51.390Z,6.18
2022-11-24T01:14:18.744Z,5.90
2022-11-24T01:16:45.399Z,5.78
2022-11-24T01:19:12.072Z,5.88
2022-11-24T01:21:38.681Z,6.18
2022-11-24T01:24:05.724Z,6.32
2022-11-24T01:26:32.618Z,5.68
2022-11-24T01:28:59.317Z,6.20
2022-11-24T01:31:26.933Z,6.07
2022-11-24T01:33:53.998Z,6.22
2022-11-24T01:36:21.438Z,6.00
2022-11-24T01:38:48.251Z,6.15
2022-11-24T01:41:17.173Z,6.10
2022-11-24T01:43:45.005Z,6.53
2022-11-24T01:46:33.529Z,6.20
2022-11-24T01:49:11.896Z,5.97
2022-11-24T01:51:43.467Z,6.22
2022-11-24T01:54:16.549Z,6.20
2022-11-24T01:56:46.509Z,6.15
2022-11-24T01:59:14.858Z,6.20
2022-11-24T02:01:41.802Z,6.28
2022-11-24T02:04:11.752Z,6.30
2022-11-24T02:06:39.936Z,6.13
2022-11-24T02:09:23.724Z,6.50
2022-11-24T02:11:50.734Z,6.25
2022-11-24T02:14:18.865Z,5.70
2022-11-24T02:16:49.648Z,5.72
2022-11-24T02:19:32.740Z,5.78
2022-11-24T02:21:59.491Z,5.45
2022-11-24T02:24:35.860Z,6.18
2022-11-24T02:27:02.635Z,5.32
2022-11-24T02:29:29.286Z,5.25
2022-11-24T02:31:59.727Z,4.93
2022-11-24T02:34:26.501Z,5.28
2022-11-24T02:36:53.073Z,5.07
2022-11-24T02:39:19.897Z,5.30
2022-11-24T02:41:50.633Z,4.80
2022-11-24T02:44:17.973Z,5.10
2022-11-24T02:46:44.699Z,5.30
2022-11-24T02:49:11.456Z,5.13
2022-11-24T02:51:38.182Z,4.90
2022-11-24T02:54:04.893Z,4.88
2022-11-24T02:56:31.558Z,4.93
2022-11-24T02:58:58.169Z,4.65
2022-11-24T03:01:24.804Z,4.60
2022-11-24T03:03:51.466Z,5.00
2022-11-24T03:06:18.107Z,4.70
2022-11-24T03:08:44.941Z,4.60
2022-11-24T03:11:11.503Z,4.40
2022-11-24T03:13:38.117Z,4.80
2022-11-24T03:16:08.523Z,4.53
2022-11-24T03:18:35.191Z,4.22
2022-11-24T03:21:01.872Z,4.63
2022-11-24T03:23:28.489Z,4.80
2022-11-24T03:25:55.084Z,4.22
2022-11-24T03:28:21.744Z,4.35
2022-11-24T03:30:49.375Z,4.50
2022-11-24T03:33:17.528Z,4.30
2022-11-24T03:35:44.295Z,3.83
2022-11-24T03:38:10.869Z,4.63
2022-11-24T03:40:37.462Z,4.10
2022-11-24T03:43:04.111Z,4.10
2022-11-24T03:45:45.479Z,4.50
2022-11-24T03:48:12.445Z,4.50
2022-11-24T03:50:39.147Z,4.07
2022-11-24T03:53:05.828Z,3.85
2022-11-24T03:55:32.765Z,3.85
2022-11-24T03:57:59.435Z,4.28
2022-11-24T04:00:26.589Z,4.50
2022-11-24T04:02:53.562Z,4.00
2022-11-24T04:05:20.365Z,3.97
2022-11-24T04:07:47.012Z,3.90
2022-11-24T04:10:13.832Z,4.30
2022-11-24T04:12:46.402Z,3.83
2022-11-24T04:15:17.998Z,4.10
2022-11-24T04:17:45.656Z,4.43
2022-11-24T04:20:13.439Z,4.30
2022-11-24T04:22:40.140Z,4.18
2022-11-24T04:25:07.794Z,4.55
2022-11-24T04:27:35.177Z,4.32
2022-11-24T04:30:02.272Z,4.53
2022-11-24T04:32:28.884Z,4.20
2022-11-24T04:34:55.542Z,4.70
2022-11-24T04:37:22.182Z,4.20
2022-11-24T04:39:48.782Z,4.47
2022-11-24T04:42:15.397Z,4.30
2022-11-24T04:44:42.030Z,4.20
2022-11-24T04:47:15.240Z,4.55
2022-11-24T04:49:41.852Z,4.40
2022-11-24T04:52:08.416Z,4.30
2022-11-24T04:54:35.276Z,3.97
2022-11-24T04:57:02.112Z,3.75
2022-11-24T04:59:28.994Z,4.40
2022-11-24T05:01:55.571Z,4.00
2022-11-24T05:04:22.353Z,3.95
2022-11-24T05:06:49.089Z,4.30
2022-11-24T05:09:16.673Z,3.85
2022-11-24T05:11:43.880Z,4.15
2022-11-24T05:14:10.574Z,4.00
2022-11-24T05:16:37.929Z,3.63
2022-11-24T05:19:04.794Z,4.13
2022-11-24T05:21:31.375Z,4.35
2022-11-24T05:23:58.111Z,3.90
2022-11-24T05:26:24.980Z,3.97
2022-11-24T05:28:51.605Z,3.65
2022-11-24T05:31:18.287Z,4.05
2022-11-24T05:33:45.704Z,3.83
2022-11-24T05:36:32.301Z,3.42
2022-11-24T05:38:59.077Z,3.42
2022-11-24T05:41:26.199Z,3.80
2022-11-24T05:43:52.902Z,3.60
2022-11-24T05:46:19.609Z,3.92
2022-11-24T05:48:46.238Z,3.45
2022-11-24T05:51:12.945Z,3.58
2022-11-24T05:53:39.502Z,3.40
2022-11-24T05:56:06.605Z,3.45
2022-11-24T05:58:33.259Z,3.50
2022-11-24T06:00:59.812Z,3.75
2022-11-24T06:03:26.444Z,3.83
2022-11-24T06:05:53.039Z,3.75
2022-11-24T06:08:19.676Z,3.60
2022-11-24T06:10:46.224Z,3.70
2022-11-24T06:13:12.922Z,3.30
2022-11-24T06:15:40.828Z,3.85
2022-11-24T06:18:07.484Z,3.40
2022-11-24T06:20:34.144Z,3.90
2022-11-24T06:23:01.379Z,3.40
2022-11-24T06:25:28.816Z,3.30
2022-11-24T06:27:55.570Z,3.53
2022-11-24T06:30:22.306Z,3.65
2022-11-24T06:32:49.999Z,3.47
2022-11-24T06:35:17.187Z,3.80
2022-11-24T06:37:43.915Z,3.85
2022-11-24T06:40:10.727Z,3.70
2022-11-24T06:42:37.443Z,3.47
2022-11-24T06:45:08.774Z,3.53
2022-11-24T06:47:36.172Z,3.78
2022-11-24T06:50:02.908Z,3.55
2022-11-24T06:52:29.521Z,3.70
2022-11-24T06:54:57.211Z,3.88
2022-11-24T06:57:23.987Z,3.75
2022-11-24T06:59:50.756Z,4.10
2022-11-24T07:02:17.400Z,5.80
2022-11-24T07:04:43.949Z,5.68
2022-11-24T07:07:10.619Z,5.95
2022-11-24T07:09:37.323Z,4.55
2022-11-24T07:12:04.993Z,4.00
2022-11-24T07:14:32.226Z,3.85
2022-11-24T07:16:59.083Z,3.80
2022-11-24T07:19:25.805Z,4.00
2022-11-24T07:21:52.405Z,3.58
2022-11-24T07:24:19.089Z,3.63
2022-11-24T07:26:45.821Z,3.45
2022-11-24T07:29:12.475Z,3.70
2022-11-24T07:31:39.219Z,3.70
2022-11-24T07:34:06.326Z,3.60
2022-11-24T07:36:33.091Z,3.70
2022-11-24T07:38:59.905Z,3.40
2022-11-24T07:41:26.564Z,3.30
2022-11-24T07:43:53.240Z,3.42
2022-11-24T07:46:20.324Z,3.20
2022-11-24T07:48:50.407Z,3.20
2022-11-24T07:51:17.093Z,3.25
2022-11-24T07:53:44.215Z,3.40
2022-11-24T07:56:11.309Z,3.13
2022-11-24T07:58:38.186Z,3.20
2022-11-24T08:01:15.928Z,3.33
2022-11-24T08:03:43.424Z,3.35
2022-11-24T08:06:29.038Z,3.05
2022-11-24T08:08:57.362Z,3.25
2022-11-24T08:11:24.117Z,3.25
2022-11-24T08:13:50.744Z,3.03
2022-11-24T08:16:18.956Z,3.00
2022-11-24T08:18:53.526Z,3.47
2022-11-24T08:21:21.016Z,3.00
2022-11-24T08:23:47.669Z,3.08
2022-11-24T08:26:18.106Z,3.20
2022-11-24T08:28:46.125Z,3.20
2022-11-24T08:31:15.152Z,3.13
2022-11-24T08:33:42.566Z,3.30
2022-11-24T08:36:11.513Z,3.25
2022-11-24T08:38:38.783Z,3.17
2022-11-24T08:41:09.104Z,3.10
2022-11-24T08:43:35.808Z,3.13
2022-11-24T08:46:07.640Z,3.28
2022-11-24T08:48:35.488Z,3.05
2022-11-24T08:51:10.246Z,3.15
2022-11-24T08:53:38.228Z,2.97
2022-11-24T08:56:05.660Z,3.30
2022-11-24T08:58:32.353Z,3.28
2022-11-24T09:01:06.878Z,2.90
2022-11-24T09:03:34.581Z,2.80
2022-11-24T09:06:02.380Z,2.72
2022-11-24T09:08:32.372Z,3.00
2022-11-24T09:11:03.947Z,2.95
2022-11-24T09:13:30.679Z,3.10
2022-11-24T09:15:57.540Z,3.10
2022-11-24T09:18:28.849Z,2.70
2022-11-24T09:21:07.132Z,2.70
2022-11-24T09:23:34.426Z,3.00
2022-11-24T09:26:17.736Z,3.20
2022-11-24T09:28:44.479Z,9.27
2022-11-24T09:31:13.749Z,8.93
2022-11-24T09:33:41.032Z,6.43
2022-11-24T09:36:08.258Z,5.38
2022-11-24T09:38:35.199Z,5.78
2022-11-24T09:41:29.617Z,4.70
2022-11-24T09:44:05.180Z,4.63
2022-11-24T09:46:44.527Z,4.28
2022-11-24T09:49:29.031Z,4.30
2022-11-24T09:51:56.480Z,4.10
2022-11-24T09:54:28.913Z,3.92
2022-11-24T09:56:58.817Z,4.00
2022-11-24T09:59:28.238Z,3.60
2022-11-24T10:01:56.565Z,3.95
2022-11-24T10:04:34.646Z,4.20
2022-11-24T10:07:19.838Z,3.85
2022-11-24T10:10:07.544Z,3.70
2022-11-24T10:13:15.785Z,3.50
2022-11-24T10:15:53.132Z,3.53
2022-11-24T10:18:38.347Z,3.33
2022-11-24T10:21:12.855Z,3.35
2022-11-24T10:24:12.583Z,3.60
2022-11-24T10:26:40.776Z,3.15
2022-11-24T10:29:47.528Z,8.75
2022-11-24T10:32:25.153Z,7.50
2022-11-24T10:34:51.955Z,5.65
2022-11-24T10:37:27.923Z,5.30
2022-11-24T10:40:00.829Z,4.82
2022-11-24T10:42:33.501Z,4.45
2022-11-24T10:45:12.086Z,4.53
2022-11-24T10:47:40.195Z,4.20
2022-11-24T10:50:14.246Z,3.90
2022-11-24T10:52:44.204Z,4.05
2022-11-24T10:55:12.400Z,4.15
2022-11-24T10:57:40.181Z,3.58
2022-11-24T11:00:18.914Z,4.05
2022-11-24T11:02:49.518Z,3.53
2022-11-24T11:05:42.383Z,3.42
2022-11-24T11:08:21.614Z,3.55
2022-11-24T11:11:12.964Z,3.20
2022-11-24T11:13:52.292Z,3.50
2022-11-24T11:16:39.423Z,3.40
2022-11-24T11:19:49.327Z,3.20
2022-11-24T11:22:29.269Z,3.35
2022-11-24T11:25:11.290Z,3.30
2022-11-24T11:27:38.892Z,3.10
2022-11-24T11:35:51.246Z,2.95
2022-11-24T11:38:17.911Z,3.03
2022-11-24T11:40:44.804Z,3.08
2022-11-24T11:43:33.072Z,2.78
2022-11-24T11:46:02.765Z,2.72
2022-11-24T11:48:42.744Z,2.65
2022-11-24T11:51:25.573Z,2.60
2022-11-24T11:53:52.430Z,2.80
2022-11-24T11:56:26.197Z,2.50
2022-11-24T11:59:31.566Z,2.28
2022-11-24T12:02:19.772Z,2.83
2022-11-24T12:05:01.385Z,2.42
2022-11-24T12:07:46.905Z,2.55
2022-11-24T12:10:50.411Z,2.38
2022-11-24T12:13:42.831Z,2.45
2022-11-24T12:16:38.874Z,2.22
2022-11-24T12:19:24.496Z,2.47
2022-11-24T12:22:00.318Z,2.40
2022-11-24T12:24:35.737Z,2.38
2022-11-24T12:27:09.252Z,2.30
2022-11-24T12:29:51.210Z,2.25
2022-11-24T12:32:36.170Z,2.20
2022-11-24T12:35:18.322Z,2.25
2022-11-24T12:37:47.925Z,2.30
2022-11-24T12:40:21.103Z,2.13
2022-11-24T12:43:06.454Z,3.60
2022-11-24T12:48:17.010Z,4.88
2022-11-24T12:50:44.463Z,4.00
2022-11-24T12:53:17.991Z,4.00
2022-11-24T12:55:45.530Z,3.75
2022-11-24T12:58:25.763Z,3.90
2022-11-24T13:01:16.770Z,3.60
2022-11-24T13:04:01.732Z,3.65
2022-11-24T13:06:54.219Z,4.00
2022-11-24T13:09:20.921Z,3.80
2022-11-24T13:11:49.421Z,3.50
2022-11-24T13:14:15.959Z,3.55
2022-11-24T13:17:13.549Z,3.65
2022-11-24T13:19:37.292Z,3.83
2022-11-24T13:22:06.873Z,4.00
2022-11-24T13:24:36.905Z,3.60
2022-11-24T13:28:11.410Z,3.92
2022-11-24T13:30:46.363Z,3.40
2022-11-24T13:33:17.065Z,3.35
2022-11-24T13:40:02.452Z,3.10
2022-11-24T13:42:44.002Z,3.20
2022-11-24T13:45:40.941Z,3.78
2022-11-24T13:48:20.671Z,3.40
2022-11-24T13:50:51.002Z,3.40
2022-11-24T13:53:35.253Z,3.40
2022-11-24T13:56:14.128Z,3.10
2022-11-24T13:58:40.897Z,3.10
2022-11-24T14:01:19.697Z,3.22
2022-11-24T14:07:07.439Z,3.22
2022-11-24T14:09:48.980Z,3.20
2022-11-24T14:12:20.784Z,3.10
2022-11-24T14:15:02.920Z,3.00
2022-11-24T14:17:30.432Z,3.15
2022-11-24T14:20:31.487Z,3.17
2022-11-24T14:23:09.514Z,3.40
2022-11-24T14:25:36.483Z,3.00
2022-11-24T14:28:14.951Z,3.35
2022-11-24T14:30:41.726Z,12.18
2022-11-24T14:33:12.822Z,9.88
2022-11-24T14:35:45.236Z,7.63
2022-11-24T14:38:14.920Z,6.85
2022-11-24T14:40:52.842Z,6.32
2022-11-24T14:43:30.735Z,5.55
2022-11-24T14:46:03.079Z,5.45
2022-11-24T14:48:37.024Z,6.00
2022-11-24T14:51:20.069Z,5.53
2022-11-24T14:53:50.412Z,5.70
2022-11-24T14:56:26.227Z,6.20
2022-11-24T14:58:54.277Z,5.85
2022-11-24T15:01:27.068Z,5.43
2022-11-24T15:04:22.072Z,5.40
2022-11-24T15:07:04.790Z,5.28
2022-11-24T15:09:39.438Z,5.47
2022-11-24T15:12:09.123Z,5.47
2022-11-24T15:14:41.698Z,4.85
2022-11-24T15:17:08.311Z,4.70
2022-11-24T15:19:37.330Z,4.60
2022-11-24T15:22:34.109Z,4.65
2022-11-24T15:25:01.143Z,4.68
2022-11-24T15:27:27.824Z,4.53
2022-11-24T15:29:54.466Z,4.35
2022-11-24T15:32:21.158Z,4.25
2022-11-24T15:34:47.722Z,4.82
2022-11-24T15:37:14.300Z,4.10
2022-11-24T15:39:40.898Z,4.25
2022-11-24T15:42:09.155Z,4.53
2022-11-24T15:44:37.020Z,4.55
2022-11-24T15:47:03.987Z,4.18
2022-11-24T15:49:31.110Z,3.95
2022-11-24T15:51:57.712Z,4.03
2022-11-24T15:54:25.786Z,3.92
2022-11-24T15:56:52.419Z,4.00
2022-11-24T15:59:21.197Z,4.03
2022-11-24T16:01:49.782Z,3.67
2022-11-24T16:04:16.727Z,3.80
2022-11-24T16:06:43.368Z,3.60
2022-11-24T16:09:15.039Z,3.75
2022-11-24T16:11:41.713Z,3.70
2022-11-24T16:14:08.402Z,3.90
2022-11-24T16:16:35.124Z,3.60
2022-11-24T16:19:01.694Z,3.65
2022-11-24T16:21:28.245Z,3.63
2022-11-24T16:23:55.095Z,3.10
2022-11-24T16:26:21.724Z,3.03
2022-11-24T16:28:48.359Z,3.10
2022-11-24T16:31:16.228Z,3.60
2022-11-24T16:33:44.683Z,3.25
2022-11-24T16:36:11.863Z,3.28
2022-11-24T16:38:38.491Z,3.20
2022-11-24T16:41:05.208Z,3.72
2022-11-24T16:43:31.852Z,3.33
2022-11-24T16:46:18.681Z,3.10
2022-11-24T16:48:46.524Z,3.20
2022-11-24T16:51:13.718Z,3.50
2022-11-24T16:53:40.650Z,3.50
2022-11-24T16:56:07.495Z,3.30
2022-11-24T16:58:34.337Z,3.30
2022-11-24T17:01:05.705Z,3.30
2022-11-24T17:03:38.770Z,3.45
2022-11-24T17:06:07.849Z,3.38
2022-11-24T17:08:35.723Z,3.35
2022-11-24T17:11:12.654Z,4.80
2022-11-24T17:13:39.727Z,6.43
2022-11-24T17:16:08.536Z,9.38
2022-11-24T17:18:35.378Z,9.43
2022-11-24T17:21:07.722Z,9.30
2022-11-24T17:23:36.024Z,9.97
2022-11-24T17:26:04.340Z,12.75
2022-11-24T17:28:31.021Z,12.75
2022-11-24T17:30:58.007Z,11.65
2022-11-24T17:33:24.628Z,14.07
2022-11-24T17:35:51.342Z,14.10
2022-11-24T17:38:17.992Z,16.25
2022-11-24T17:40:48.060Z,15.32
2022-11-24T17:43:14.680Z,15.20
2022-11-24T17:45:41.672Z,14.65
2022-11-24T17:48:08.520Z,15.93
2022-11-24T17:50:35.154Z,16.55
2022-11-24T17:53:01.830Z,16.92
2022-11-24T17:55:28.459Z,18.35
2022-11-24T17:57:56.008Z,18.17
2022-11-24T18:00:22.819Z,18.88
2022-11-24T18:02:49.519Z,17.65
2022-11-24T18:05:16.344Z,18.15
2022-11-24T18:07:43.109Z,17.73
2022-11-24T18:10:10.200Z,17.08
2022-11-24T18:12:37.035Z,17.15
2022-11-24T18:15:04.056Z,17.25
2022-11-24T18:17:30.709Z,16.92
2022-11-24T18:19:57.353Z,16.42
2022-11-24T18:22:49.986Z,15.77
2022-11-24T18:25:10.654Z,15.13
2022-11-24T18:27:37.412Z,15.23
2022-11-24T18:30:05.657Z,15.07
2022-11-24T18:32:33.663Z,14.95
2022-11-24T18:35:00.415Z,14.07
2022-11-24T18:37:30.470Z,13.90
2022-11-24T18:39:57.102Z,14.05
2022-11-24T18:42:25.644Z,13.82
2022-11-24T18:44:54.160Z,13.52
2022-11-24T18:47:21.113Z,13.63
2022-11-24T18:49:47.754Z,13.45
2022-11-24T18:52:14.557Z,13.43
2022-11-24T18:54:41.151Z,13.43
2022-11-24T18:57:07.813Z,12.68
2022-11-24T18:59:34.404Z,12.75
2022-11-24T19:02:01.150Z,12.38
2022-11-24T19:04:27.948Z,12.48
2022-11-24T19:06:54.543Z,12.23
2022-11-24T19:09:22.734Z,11.68
2022-11-24T19:11:49.637Z,11.82
2022-11-24T19:14:17.943Z,11.57
2022-11-24T19:16:48.772Z,12.02
2022-11-24T19:19:17.183Z,11.18
2022-11-24T19:21:44.105Z,11.20
2022-11-24T19:24:11.292Z,11.23
2022-11-24T19:26:39.033Z,10.60
2022-11-24T19:29:06.754Z,10.70
2022-11-24T19:31:34.498Z,9.95
2022-11-24T19:34:02.971Z,8.60
2022-11-24T19:36:29.936Z,8.07
2022-11-24T19:38:57.210Z,8.57
2022-11-24T19:41:26.964Z,9.63
2022-11-24T19:43:54.605Z,8.85
2022-11-24T19:46:22.092Z,9.30
2022-11-24T19:48:50.768Z,8.18
2022-11-24T19:51:19.723Z,8.45
2022-11-24T19:53:46.706Z,8.75
2022-11-24T19:56:15.359Z,8.32
2022-11-24T19:58:42.413Z,7.57
2022-11-24T20:01:11.622Z,7.75
2022-11-24T20:03:39.526Z,6.60
2022-11-24T20:06:07.987Z,7.30
2022-11-24T20:08:35.901Z,7.47
2022-11-24T20:11:14.531Z,7.20
2022-11-24T20:13:43.572Z,6.63
2022-11-24T20:16:11.574Z,6.65
2022-11-24T20:18:42.228Z,6.93
2022-11-24T20:21:17.970Z,6.88
2022-11-24T20:23:46.216Z,6.88
2022-11-24T20:26:19.731Z,7.05
2022-11-24T20:28:47.254Z,6.88
2022-11-24T20:31:16.583Z,7.22
2022-11-24T20:33:44.072Z,6.85
2022-11-24T20:36:13.367Z,6.78
2022-11-24T20:38:41.435Z,6.63
2022-11-24T20:41:09.631Z,6.80
2022-11-24T20:43:37.529Z,6.78
2022-11-24T20:46:09.824Z,6.30
2022-11-24T20:48:37.049Z,6.30
2022-11-24T20:51:08.608Z,6.93
2022-11-24T20:53:35.973Z,6.43
2022-11-24T20:56:20.052Z,6.70
2022-11-24T20:58:46.865Z,6.53
2022-11-24T21:01:28.334Z,6.15
2022-11-24T21:03:57.686Z,6.03
2022-11-24T21:06:24.850Z,5.95
2022-11-24T21:08:51.772Z,5.63
2022-11-24T21:11:19.617Z,6.20
2022-11-24T21:13:49.614Z,6.30
2022-11-24T21:16:26.306Z,5.85
2022-11-24T21:18:56.650Z,5.93
2022-11-24T21:21:24.723Z,5.50
2022-11-24T21:23:51.861Z,5.47
2022-11-24T21:26:19.223Z,5.80
2022-11-24T21:28:46.858Z,5.60
2022-11-24T21:31:16.712Z,5.93
2022-11-24T21:33:49.472Z,5.20
2022-11-24T21:36:19.518Z,5.05
2022-11-24T21:38:59.199Z,5.00
2022-11-24T21:41:28.172Z,5.55
2022-11-24T21:43:58.085Z,4.88
2022-11-24T21:46:25.143Z,4.90
2022-11-24T21:48:51.898Z,5.10
2022-11-24T21:51:20.222Z,5.07
2022-11-24T21:53:47.819Z,4.65
2022-11-24T21:56:17.272Z,4.75
2022-11-24T21:58:48.639Z,5.05
2022-11-24T22:01:16.777Z,4.95
2022-11-24T22:03:43.535Z,19.40
2022-11-24T22:06:10.236Z,10.93
2022-11-24T22:08:37.019Z,7.60
2022-11-24T22:11:08.732Z,7.40
2022-11-24T22:13:35.613Z,7.13
2022-11-24T22:16:11.416Z,7.00
2022-11-24T22:18:40.390Z,7.25
2022-11-24T22:21:09.732Z,7.05
2022-11-24T22:23:36.617Z,7.10
2022-11-24T22:26:10.158Z,7.43
2022-11-24T22:28:37.059Z,7.40
2022-11-24T22:31:09.134Z,7.10
2022-11-24T22:33:36.088Z,6.72
2022-11-24T22:36:03.131Z,7.05
2022-11-24T22:38:30.699Z,7.07
2022-11-24T22:41:05.478Z,6.97
2022-11-24T22:43:33.619Z,6.63
2022-11-24T22:46:08.099Z,6.22
2022-11-24T22:48:35.256Z,6.20
2022-11-24T22:51:03.587Z,5.85
2022-11-24T22:53:30.565Z,5.95
2022-11-24T22:55:59.542Z,5.82
2022-11-24T22:58:26.167Z,6.00
2022-11-24T23:00:52.856Z,6.07
2022-11-24T23:03:19.617Z,5.95
2022-11-24T23:05:46.269Z,5.50
2022-11-24T23:08:12.912Z,5.97
2022-11-24T23:10:39.537Z,5.85
2022-11-24T23:13:06.100Z,5.13
2022-11-24T23:15:32.784Z,5.30
2022-11-24T23:17:59.413Z,5.05
2022-11-24T23:20:26.186Z,4.88
2022-11-24T23:22:53.249Z,5.32
2022-11-24T23:25:19.886Z,4.90
2022-11-24T23:27:46.487Z,5.25
2022-11-24T23:30:13.232Z,4.70
2022-11-24T23:32:40.141Z,4.82
2022-11-24T23:35:12.361Z,4.78
2022-11-24T23:38:06.048Z,5.05
2022-11-24T23:40:28.503Z,4.80
2022-11-24T23:42:55.172Z,4.72
2022-11-24T23:45:21.742Z,4.47
2022-11-24T23:47:48.352Z,4.10
2022-11-24T23:50:15.275Z,4.50
2022-11-24T23:52:41.862Z,4.90
2022-11-24T23:55:08.710Z,4.53
2022-11-24T23:57:35.504Z,4.28
